Time;durP1;ratioP1;P1;durP2;ratioP2;P2;SDS_P1;SDS_P2;PMS_P1;PMS_P2;Temp;Humidity;BMP_temperature;BMP_pressure;BME280_temperature;BME280_humidity;BME280_pressure;Samples;Min_cycle;Max_cycle;Signal;HPM_P1;HPM_P2
2021/03/28 03:03:35;;;;;;;18.50;10.80;;;;;;;2.09;100.00;101126.98;1755988;80;20915;-67
2021/03/28 03:06:16;;;;;;;20.60;11.90;;;;;;;2.16;100.00;101135.92;1759010;79;21190;-60
2021/03/28 03:09:22;;;;;;;18.25;11.53;;;;;;;2.17;100.00;101137.09;1747433;79;22338;-59
2021/03/28 03:12:23;;;;;;;15.15;9.85;;;;;;;2.15;100.00;101130.39;1742883;80;21698;-63
2021/03/28 03:15:19;;;;;;;16.35;10.40;;;;;;;2.13;100.00;101136.95;1726707;80;21015;-60
2021/03/28 03:18:13;;;;;;;16.57;11.35;;;;;;;2.12;100.00;101145.59;1714261;80;21191;-59
2021/03/28 03:21:31;;;;;;;19.27;10.45;;;;;;;2.14;100.00;101148.87;1727903;79;21216;-59
2021/03/28 03:24:44;;;;;;;17.32;11.68;;;;;;;2.17;100.00;101155.09;1758073;78;21433;-63
2021/03/28 03:27:24;;;;;;;16.27;10.08;;;;;;;2.16;100.00;101155.20;1755986;81;21101;-58
2021/03/28 03:30:36;;;;;;;21.95;12.95;;;;;;;2.15;100.00;101154.36;1758852;79;21100;-61
2021/03/28 03:33:34;;;;;;;20.32;12.30;;;;;;;2.15;100.00;101148.40;1748239;80;21627;-60
2021/03/28 03:36:28;;;;;;;20.12;11.63;;;;;;;2.17;100.00;101152.98;1752043;81;21159;-59
2021/03/28 03:39:18;;;;;;;19.42;12.05;;;;;;;2.20;100.00;101163.07;1725377;83;21213;-59
2021/03/28 03:42:18;;;;;;;20.55;11.43;;;;;;;2.25;100.00;101166.60;1767281;78;21116;-68
2021/03/28 03:45:16;;;;;;;21.57;13.05;;;;;;;2.27;100.00;101172.44;1777675;80;21588;-59
2021/03/28 03:47:55;;;;;;;17.70;11.60;;;;;;;2.27;100.00;101173.27;1740932;81;21237;-60
2021/03/28 03:50:50;;;;;;;18.65;11.22;;;;;;;2.25;100.00;101180.75;1758709;80;21210;-59
2021/03/28 03:53:45;;;;;;;18.20;11.55;;;;;;;2.22;100.00;101180.48;1748972;82;21220;-59
2021/03/28 03:56:36;;;;;;;21.75;13.15;;;;;;;2.19;100.00;101178.94;1748570;82;21160;-60
2021/03/28 03:59:33;;;;;;;23.98;12.98;;;;;;;2.19;100.00;101181.51;1776948;79;21187;-60
2021/03/28 04:02:16;;;;;;;24.40;16.82;;;;;;;2.24;100.00;101172.68;1752495;78;21197;-60
2021/03/28 04:05:08;;;;;;;27.60;17.37;;;;;;;2.20;100.00;101178.50;1746091;82;21244;-59
2021/03/28 04:08:05;;;;;;;24.80;15.60;;;;;;;2.17;100.00;101191.10;1729684;80;21203;-59
2021/03/28 04:10:38;;;;;;;20.88;13.08;;;;;;;2.31;100.00;101207.31;1727874;81;21008;-59
2021/03/28 04:13:27;;;;;;;19.02;12.18;;;;;;;3.00;100.00;101200.71;1780123;78;21202;-60
2021/03/28 04:16:43;;;;;;;19.00;12.45;;;;;;;3.94;100.00;101193.31;1722803;83;20910;-63
2021/03/28 04:19:48;;;;;;;18.30;12.07;;;;;;;5.12;100.00;101199.05;1731938;82;21098;-64
2021/03/28 04:22:40;;;;;;;18.20;11.88;;;;;;;6.39;100.00;101191.95;1762642;78;21343;-59
2021/03/28 04:25:53;;;;;;;14.30;10.23;;;;;;;7.34;100.00;101192.60;1754710;81;21221;-58
2021/03/28 04:28:36;;;;;;;;;;;;;;;8.27;100.00;101182.66;1717807;83;21647;-60
2021/03/28 04:31:32;;;;;;;15.63;10.97;;;;;;;9.26;100.00;101175.65;1753820;80;20547;-59
2021/03/28 04:34:29;;;;;;;17.13;10.67;;;;;;;10.12;100.00;101175.31;1754935;81;21584;-60
2021/03/28 04:37:18;;;;;;;14.13;10.67;;;;;;;11.80;100.00;101163.94;1754285;81;22681;-61
2021/03/28 04:39:52;;;;;;;16.40;11.37;;;;;;;11.80;100.00;101163.94;1723501;83;21840;-59
2021/03/28 04:42:47;;;;;;;15.23;11.17;;;;;;;11.99;100.00;101175.02;1754702;78;21903;-60
2021/03/28 04:45:32;;;;;;;15.07;11.27;;;;;;;11.66;100.00;101183.72;1723153;83;21088;-61
2021/03/28 04:48:32;;;;;;;16.87;11.67;;;;;;;11.21;100.00;101189.50;1755018;80;21618;-60
2021/03/28 04:51:49;;;;;;;14.90;11.53;;;;;;;10.60;100.00;101197.29;1762027;78;21694;-59
2021/03/28 04:54:37;;;;;;;18.57;12.37;;;;;;;9.81;100.00;101191.45;1756942;78;21694;-58
2021/03/28 04:57:44;;;;;;;16.27;11.80;;;;;;;9.20;100.00;101198.35;1752490;81;21722;-63
2021/03/28 05:00:34;;;;;;;15.33;11.33;;;;;;;8.93;100.00;101206.26;1786190;78;21640;-59
2021/03/28 05:03:39;;;;;;;16.63;10.63;;;;;;;9.37;100.00;101198.01;1744342;81;21615;-59
2021/03/28 05:06:36;;;;;;;16.27;11.30;;;;;;;9.88;100.00;101197.66;1776080;80;21388;-58
2021/03/28 05:09:47;;;;;;;17.97;12.43;;;;;;;9.93;100.00;101201.93;1770916;80;21691;-58
2021/03/28 05:12:41;;;;;;;16.67;11.80;;;;;;;9.68;100.00;101199.67;1692917;81;21417;-58
2021/03/28 05:15:25;;;;;;;15.40;10.73;;;;;;;9.30;100.00;101190.48;1697714;83;22130;-59
2021/03/28 05:18:38;;;;;;;16.43;12.20;;;;;;;8.95;100.00;101198.66;1756854;79;21655;-58
2021/03/28 05:21:30;;;;;;;16.80;11.83;;;;;;;8.63;100.00;101203.53;1755693;79;22009;-58
2021/03/28 05:24:26;;;;;;;22.53;12.37;;;;;;;8.18;100.00;101206.44;1756769;79;21407;-60
2021/03/28 05:27:51;;;;;;;19.47;12.37;;;;;;;7.88;100.00;101207.52;1752905;79;21404;-60
2021/03/28 05:30:59;;;;;;;21.30;16.27;;;;;;;7.68;100.00;101218.41;1757052;80;22458;-60
2021/03/28 05:33:39;;;;;;;33.20;20.83;;;;;;;7.51;100.00;101225.15;1756602;80;21286;-59
2021/03/28 05:36:37;;;;;;;;;;;;;;;7.65;100.00;101225.66;1743566;80;21397;-59
2021/03/28 05:39:41;;;;;;;18.83;13.97;;;;;;;7.97;100.00;101223.52;1760956;80;20149;-59
2021/03/28 05:42:32;;;;;;;21.70;15.67;;;;;;;8.41;100.00;101222.48;1756801;79;21851;-59
2021/03/28 05:45:46;;;;;;;25.25;16.55;;;;;;;8.94;100.00;101218.28;1785962;78;21431;-59
2021/03/28 05:48:40;;;;;;;24.97;15.93;;;;;;;9.44;100.00;101217.26;1785840;78;21073;-60
2021/03/28 05:51:46;;;;;;;16.60;11.43;;;;;;;9.92;100.00;101215.91;1785338;79;22158;-59
2021/03/28 05:54:47;;;;;;;15.17;10.93;;;;;;;10.26;100.00;101220.81;1785859;79;21741;-59
2021/03/28 05:57:42;;;;;;;15.40;11.57;;;;;;;10.46;100.00;101219.10;1785793;79;21237;-60
2021/03/28 06:00:46;;;;;;;16.10;10.07;;;;;;;11.06;100.00;101214.16;1785375;78;22953;-60
2021/03/28 06:03:55;;;;;;;11.80;9.20;;;;;;;11.06;100.00;101214.16;1782088;78;22109;-60
2021/03/28 06:07:09;;;;;;;14.30;10.00;;;;;;;11.42;100.00;101218.53;1786187;79;21773;-59
2021/03/28 06:10:04;;;;;;;11.10;8.17;;;;;;;11.67;100.00;101219.82;1785887;78;21831;-60
2021/03/28 06:13:14;;;;;;;11.87;8.60;;;;;;;11.97;100.00;101218.77;1778447;78;21760;-58
2021/03/28 06:16:01;;;;;;;12.90;9.27;;;;;;;12.30;100.00;101218.97;1785772;79;21772;-58
2021/03/28 06:19:14;;;;;;;10.53;8.07;;;;;;;12.66;100.00;101221.09;1785341;78;21151;-59
2021/03/28 06:22:16;;;;;;;12.77;8.67;;;;;;;13.03;100.00;101222.97;1730162;81;21155;-58
2021/03/28 06:25:20;;;;;;;12.63;8.37;;;;;;;13.64;100.00;101224.26;1791971;78;21033;-59
2021/03/28 06:28:20;;;;;;;12.13;9.23;;;;;;;14.22;100.00;101216.56;1787734;78;21726;-60
2021/03/28 06:31:00;;;;;;;11.47;8.47;;;;;;;14.72;100.00;101221.48;1789219;78;21155;-66
2021/03/28 06:34:03;;;;;;;10.70;8.50;;;;;;;15.38;100.00;101227.81;1786871;78;21199;-60
2021/03/28 06:36:46;;;;;;;10.23;8.23;;;;;;;16.09;100.00;101227.16;1787576;78;21876;-60
2021/03/28 06:39:56;;;;;;;10.63;8.53;;;;;;;16.91;88.16;101218.84;1787598;78;21060;-60
2021/03/28 06:42:55;;;;;;;10.75;8.83;;;;;;;17.48;85.32;101224.81;1787202;78;21148;-60
2021/03/28 06:45:32;;;;;;;11.63;8.00;;;;;;;18.37;74.96;101218.57;1793531;79;21025;-60
2021/03/28 06:48:49;;;;;;;9.33;8.00;;;;;;;19.26;64.66;101223.40;1791400;79;21017;-59
2021/03/28 06:51:51;;;;;;;8.47;7.20;;;;;;;19.99;57.98;101227.45;1788445;78;21208;-59
2021/03/28 06:54:48;;;;;;;9.93;7.63;;;;;;;20.59;45.86;101223.55;1765735;78;21593;-58
2021/03/28 06:57:49;;;;;;;10.60;7.33;;;;;;;20.46;41.76;101231.67;1790622;79;21681;-58
2021/03/28 07:00:46;;;;;;;8.95;6.47;;;;;;;19.90;41.08;101228.80;1785686;79;21005;-59
2021/03/28 07:03:45;;;;;;;9.90;7.73;;;;;;;19.43;39.91;101234.53;1737424;80;21129;-58
2021/03/28 07:06:24;;;;;;;8.77;7.43;;;;;;;18.87;42.23;101232.74;1791543;78;21370;-59
2021/03/28 07:09:19;;;;;;;13.37;9.37;;;;;;;18.21;44.23;101230.42;1793468;78;21088;-59
2021/03/28 07:12:27;;;;;;;10.67;8.20;;;;;;;17.65;46.97;101238.39;1790535;79;21041;-60
2021/03/28 07:15:45;;;;;;;10.30;7.03;;;;;;;16.95;48.07;101237.17;1762050;79;21483;-60
2021/03/28 07:18:57;;;;;;;9.97;6.20;;;;;;;16.23;48.39;101240.69;1762597;79;21143;-60
2021/03/28 07:21:37;;;;;;;7.43;5.40;;;;;;;15.61;46.54;101242.86;1724333;81;21388;-60
2021/03/28 07:24:37;;;;;;;8.77;6.13;;;;;;;15.70;46.37;101240.41;1750191;80;21057;-69
2021/03/28 07:27:50;;;;;;;7.83;4.77;;;;;;;16.09;42.42;101240.31;1739834;80;21014;-60
2021/03/28 07:30:51;;;;;;;7.20;4.43;;;;;;;16.14;39.24;101251.09;1783662;79;21029;-60
2021/03/28 07:34:04;;;;;;;12.45;4.95;;;;;;;15.84;37.31;101242.63;1793020;78;21132;-59
2021/03/28 07:37:30;;;;;;;7.77;4.90;;;;;;;15.09;38.38;101242.23;1796468;78;22110;-60
2021/03/28 07:40:23;;;;;;;6.73;4.43;;;;;;;14.59;42.65;101243.16;1791388;78;21096;-61
2021/03/28 07:43:49;;;;;;;9.27;4.67;;;;;;;14.69;46.46;101244.16;1781938;79;21155;-63
2021/03/28 07:46:49;;;;;;;6.27;4.30;;;;;;;15.40;45.24;101242.39;1763133;80;21427;-61
2021/03/28 07:49:46;;;;;;;5.43;3.87;;;;;;;16.35;38.37;101240.13;1763193;81;21180;-62
2021/03/28 07:53:07;;;;;;;6.10;3.63;;;;;;;17.18;36.97;101229.69;1766455;80;22648;-60
2021/03/28 07:55:50;;;;;;;6.53;4.90;;;;;;;18.07;35.06;101225.73;1696300;84;21603;-59
2021/03/28 07:58:57;;;;;;;6.90;5.17;;;;;;;18.32;33.61;101231.60;1823611;78;28212;-62
2021/03/28 08:02:26;;;;;;;8.90;5.65;;;;;;;18.20;32.74;101228.30;1791876;79;20927;-60
2021/03/28 08:05:30;;;;;;;6.73;4.77;;;;;;;18.26;33.77;101231.11;1705702;83;21373;-59
2021/03/28 08:08:13;;;;;;;7.23;5.80;;;;;;;18.83;32.36;101231.55;1706306;83;20957;-59
2021/03/28 08:11:16;;;;;;;12.53;7.57;;;;;;;18.86;30.94;101231.10;1704373;83;21570;-64
2021/03/28 08:14:18;;;;;;;12.53;7.35;;;;;;;18.74;32.28;101232.02;1700608;83;20982;-59
2021/03/28 08:17:24;;;;;;;6.17;5.00;;;;;;;18.74;32.28;101232.02;1559624;90;21065;-60
2021/03/28 08:20:27;;;;;;;6.50;5.10;;;;;;;18.49;30.46;101232.75;1555917;90;22102;-60
2021/03/28 08:23:24;;;;;;;8.30;6.37;;;;;;;18.38;31.61;101225.48;1564201;88;21631;-59
2021/03/28 08:26:25;;;;;;;7.43;4.93;;;;;;;18.48;30.22;101221.86;1567557;90;21061;-60
2021/03/28 08:29:14;;;;;;;7.42;4.40;;;;;;;18.69;30.02;101223.37;1565938;90;21211;-59
2021/03/28 08:31:57;;;;;;;5.73;4.10;;;;;;;18.68;29.87;101228.38;1542764;92;21722;-69
2021/03/28 08:34:50;;;;;;;5.93;3.77;;;;;;;18.45;29.19;101235.00;1567388;90;22160;-61
2021/03/28 08:37:51;;;;;;;9.27;4.93;;;;;;;17.74;28.83;101227.91;1539956;91;21550;-60
2021/03/28 08:44:17;;;;;;;7.70;5.50;;;;;;;16.14;32.14;101243.20;1510975;93;21289;-62
2021/03/28 08:47:27;;;;;;;12.13;6.27;;;;;;;14.96;35.90;101253.11;1486995;90;21191;-59
2021/03/28 08:50:17;;;;;;;9.53;5.13;;;;;;;14.06;40.51;101248.53;1613804;87;21296;-62
2021/03/28 08:53:25;;;;;;;8.87;5.10;;;;;;;13.51;43.08;101252.36;1610329;87;22217;-60
2021/03/28 08:56:16;;;;;;;8.57;5.67;;;;;;;13.23;43.45;101252.12;1580178;88;21317;-59
2021/03/28 08:59:09;;;;;;;7.00;4.97;;;;;;;13.54;46.19;101242.03;1652485;85;21051;-59
2021/03/28 09:01:56;;;;;;;8.83;6.20;;;;;;;14.21;44.53;101232.80;1647198;85;21275;-61
2021/03/28 09:04:56;;;;;;;6.17;4.63;;;;;;;14.72;42.60;101231.98;1637606;85;21217;-60
2021/03/28 09:07:43;;;;;;;7.07;5.03;;;;;;;15.39;40.72;101232.89;1643602;85;22370;-61
2021/03/28 09:10:26;;;;;;;7.83;5.10;;;;;;;15.88;38.26;101233.34;1611573;86;21230;-68
2021/03/28 09:13:42;;;;;;;7.93;5.50;;;;;;;15.95;37.07;101233.39;1616736;85;21041;-61
2021/03/28 09:16:40;;;;;;;7.83;5.57;;;;;;;15.74;36.50;101235.58;1626241;86;21254;-60
2021/03/28 09:19:57;;;;;;;11.73;6.20;;;;;;;15.25;36.04;101237.22;1635966;86;21454;-62
2021/03/28 09:22:53;;;;;;;8.03;5.17;;;;;;;14.63;36.07;101236.54;1642655;85;21044;-59
2021/03/28 09:25:29;;;;;;;7.77;5.67;;;;;;;14.11;36.79;101241.43;1622618;86;21101;-62
2021/03/28 09:28:31;;;;;;;13.23;8.20;;;;;;;13.45;37.27;101235.23;1631478;85;21692;-66
2021/03/28 09:31:14;;;;;;;9.30;5.60;;;;;;;12.98;37.21;101237.05;1623301;86;21246;-62
2021/03/28 09:33:59;;;;;;;6.57;4.40;;;;;;;12.66;39.26;101238.90;1630261;87;22717;-60
2021/03/28 09:36:39;;;;;;;6.13;3.83;;;;;;;12.64;39.45;101238.25;1601570;86;21222;-61
2021/03/28 09:39:35;;;;;;;7.10;4.00;;;;;;;12.73;39.20;101235.58;1624670;87;21037;-61
2021/03/28 09:42:42;;;;;;;6.17;3.90;;;;;;;13.06;39.98;101234.37;1644581;85;21093;-60
2021/03/28 09:45:50;;;;;;;5.07;3.27;;;;;;;13.68;38.24;101225.53;1660594;84;21232;-61
2021/03/28 09:48:42;;;;;;;9.57;4.93;;;;;;;14.08;36.79;101228.17;1660363;84;21346;-59
2021/03/28 09:51:40;;;;;;;7.53;3.73;;;;;;;14.04;35.43;101228.23;1666639;84;21659;-61
2021/03/28 09:54:40;;;;;;;8.67;5.03;;;;;;;13.82;35.39;101232.56;1656665;84;21161;-60
2021/03/28 09:57:18;;;;;;;7.17;3.87;;;;;;;13.57;35.96;101230.70;1650460;84;21189;-62
2021/03/28 10:00:13;;;;;;;14.17;9.03;;;;;;;13.27;36.04;101229.83;1661675;84;21227;-59
2021/03/28 10:02:49;;;;;;;29.30;22.10;;;;;;;13.23;35.88;101231.17;1660405;84;22064;-60
2021/03/28 10:05:31;;;;;;;20.47;15.83;;;;;;;13.38;36.83;101228.59;1658860;84;21241;-60
2021/03/28 10:08:17;;;;;;;9.40;5.80;;;;;;;13.67;35.43;101223.87;1658524;84;21218;-60
2021/03/28 10:11:14;;;;;;;13.30;7.77;;;;;;;13.95;33.04;101222.77;1653178;84;21056;-61
2021/03/28 10:14:04;;;;;;;8.90;3.87;;;;;;;13.98;32.70;101226.82;1662034;84;21212;-61
2021/03/28 10:17:01;;;;;;;6.70;4.08;;;;;;;13.81;32.87;101219.15;1657374;84;21061;-66
2021/03/28 10:19:39;;;;;;;5.00;3.23;;;;;;;13.63;34.43;101226.54;1671353;84;21504;-61
2021/03/28 10:22:34;;;;;;;13.37;4.30;;;;;;;13.49;35.83;101225.55;1673887;84;21058;-61
2021/03/28 10:25:34;;;;;;;28.43;21.77;;;;;;;13.52;36.12;101228.28;1668187;84;21685;-59
2021/03/28 10:28:36;;;;;;;8.47;4.87;;;;;;;13.55;35.36;101228.75;1675430;84;21251;-59
2021/03/28 10:31:30;;;;;;;9.10;5.97;;;;;;;13.55;35.90;101226.13;1669607;84;22285;-61
2021/03/28 10:34:22;;;;;;;5.17;2.50;;;;;;;14.14;36.18;101227.96;1664897;84;20998;-60
2021/03/28 10:37:18;;;;;;;4.10;2.03;;;;;;;14.79;33.98;101223.67;1630869;84;21706;-62
2021/03/28 10:40:30;;;;;;;3.20;1.87;;;;;;;15.04;33.04;101224.94;1679680;84;21104;-71
2021/03/28 10:43:32;;;;;;;4.33;2.00;;;;;;;15.12;31.98;101220.05;1664160;84;21152;-60
2021/03/28 10:46:38;;;;;;;5.40;2.13;;;;;;;14.97;31.81;101219.31;1665202;84;22762;-61
2021/03/28 10:49:38;;;;;;;5.60;2.17;;;;;;;14.59;31.40;101222.97;1670603;84;21235;-60
2021/03/28 10:52:46;;;;;;;3.97;2.40;;;;;;;14.19;31.83;101219.04;1648146;84;22226;-63
2021/03/28 10:55:36;;;;;;;7.33;2.10;;;;;;;13.63;32.70;101225.23;1659465;84;21109;-59
2021/03/28 10:58:46;;;;;;;3.63;1.87;;;;;;;13.21;34.03;101228.38;1661458;84;22363;-61
2021/03/28 11:01:34;;;;;;;3.47;1.93;;;;;;;13.02;35.06;101225.73;1668873;83;21121;-61
2021/03/28 11:04:51;;;;;;;3.20;1.83;;;;;;;13.14;36.10;101218.62;1670424;83;21088;-68
2021/03/28 11:07:52;;;;;;;3.83;2.00;;;;;;;13.48;35.87;101223.09;1656598;84;21140;-67
2021/03/28 11:11:00;;;;;;;4.58;2.30;;;;;;;14.11;34.87;101220.45;1667638;84;21689;-62
2021/03/28 11:14:06;;;;;;;7.70;2.43;;;;;;;14.71;34.07;101215.42;1672015;83;21535;-60
2021/03/28 11:17:14;;;;;;;5.13;2.07;;;;;;;15.11;32.65;101215.78;1670567;83;21410;-60
2021/03/28 11:20:27;;;;;;;3.75;1.70;;;;;;;15.19;30.71;101220.92;1668905;83;21068;-61
2021/03/28 11:23:27;;;;;;;7.30;2.20;;;;;;;14.80;30.77;101218.23;1647700;84;21218;-60
2021/03/28 11:26:36;;;;;;;10.08;2.17;;;;;;;14.55;31.95;101217.78;1669693;83;21053;-60
2021/03/28 11:29:36;;;;;;;5.33;2.80;;;;;;;14.72;31.83;101223.60;1672090;83;21716;-66
2021/03/28 11:32:43;;;;;;;3.20;1.50;;;;;;;15.02;32.21;101220.86;1668451;83;22118;-61
2021/03/28 11:35:19;;;;;;;5.63;2.73;;;;;;;15.32;30.82;101218.89;1657629;83;21666;-60
2021/03/28 11:37:55;;;;;;;5.03;1.93;;;;;;;15.46;31.74;101221.94;1668127;84;21372;-63
2021/03/28 11:40:35;;;;;;;4.53;2.73;;;;;;;15.96;31.74;101218.72;1664615;84;21226;-61
2021/03/28 11:43:12;;;;;;;3.40;1.80;;;;;;;16.63;30.90;101220.26;1669971;84;22290;-61
2021/03/28 11:46:06;;;;;;;4.27;2.03;;;;;;;17.10;29.09;101217.23;1680561;83;21203;-62
2021/03/28 11:48:49;;;;;;;4.97;2.57;;;;;;;16.96;28.23;101209.81;1666095;84;21815;-60
2021/03/28 11:51:40;;;;;;;6.23;3.43;;;;;;;16.50;29.73;101217.10;1670041;83;21064;-65
2021/03/28 11:54:15;;;;;;;5.60;2.83;;;;;;;16.23;30.17;101224.91;1660895;84;21251;-62
2021/03/28 11:57:07;;;;;;;5.40;2.80;;;;;;;15.88;30.91;101221.52;1665856;84;21183;-60
2021/03/28 11:59:44;;;;;;;6.77;3.10;;;;;;;15.57;31.00;101235.05;1659180;84;21221;-62
2021/03/28 12:02:20;;;;;;;4.77;2.60;;;;;;;14.94;31.90;101231.50;1644378;84;21607;-62
2021/03/28 12:04:51;;;;;;;3.90;1.70;;;;;;;14.48;31.66;101239.16;1700835;83;21010;-69
2021/03/28 12:07:36;;;;;;;8.33;2.83;;;;;;;14.18;31.18;101236.28;1679170;84;21545;-63
2021/03/28 12:10:10;;;;;;;5.47;1.87;;;;;;;13.88;31.30;101238.91;1664975;84;21212;-63
2021/03/28 12:12:52;;;;;;;7.13;3.17;;;;;;;13.56;32.47;101240.03;1670494;84;21318;-61
2021/03/28 12:15:46;;;;;;;4.43;2.30;;;;;;;13.45;33.26;101238.69;1674576;83;21093;-61
2021/03/28 12:18:33;;;;;;;6.83;2.93;;;;;;;13.48;34.23;101242.73;1685430;83;21073;-61
2021/03/28 12:21:10;;;;;;;5.70;2.90;;;;;;;13.60;34.55;101234.78;1685078;84;21075;-62
2021/03/28 12:23:54;;;;;;;10.93;2.90;;;;;;;13.73;34.04;101233.66;1684819;83;21160;-61
2021/03/28 12:26:39;;;;;;;4.37;2.17;;;;;;;13.81;33.83;101232.75;1680729;83;21848;-61
2021/03/28 12:29:33;;;;;;;6.70;2.77;;;;;;;13.77;33.61;101230.98;1585790;89;22629;-62
2021/03/28 12:32:04;;;;;;;4.03;2.60;;;;;;;13.77;32.79;101233.61;1581083;89;21126;-61
2021/03/28 12:34:35;;;;;;;5.23;2.93;;;;;;;13.61;33.11;101232.47;1565310;89;21215;-68
2021/03/28 12:37:12;;;;;;;4.00;2.57;;;;;;;13.66;33.16;101228.80;1571001;88;21670;-61
2021/03/28 12:39:48;;;;;;;5.10;2.60;;;;;;;13.89;32.54;101227.42;1584488;89;22184;-60
2021/03/28 12:42:24;;;;;;;20.90;5.00;;;;;;;14.18;32.15;101217.42;1582040;88;21194;-68
2021/03/28 12:45:15;;;;;;;4.67;2.80;;;;;;;14.32;33.28;101220.53;1585487;88;21320;-60
2021/03/28 12:47:53;;;;;;;6.53;3.60;;;;;;;14.24;32.98;101228.47;1587280;88;21219;-68
2021/03/28 12:50:33;;;;;;;5.07;2.93;;;;;;;14.13;33.06;101239.45;1561065;89;21215;-61
2021/03/28 12:53:19;;;;;;;7.37;3.53;;;;;;;13.92;33.33;101236.73;1606208;83;21403;-61
2021/03/28 12:55:53;;;;;;;5.30;3.10;;;;;;;13.66;34.07;101235.36;1645059;85;21284;-61
2021/03/28 12:58:36;;;;;;;5.73;2.70;;;;;;;13.41;35.11;101240.03;1711174;82;21228;-61
2021/03/28 13:01:06;;;;;;;;;;;;;;;13.14;35.71;101240.87;1706634;82;21728;-65
2021/03/28 13:03:42;;;;;;;;;;;;;;;12.89;35.56;101236.30;1707648;82;20231;-61
2021/03/28 13:06:36;;;;;;;6.47;3.10;;;;;;;12.61;36.31;101238.61;1712287;82;22281;-63
2021/03/28 13:09:17;;;;;;;8.37;3.70;;;;;;;12.44;37.55;101240.98;1709346;82;21805;-61
2021/03/28 13:11:56;;;;;;;9.50;4.12;;;;;;;12.31;38.41;101236.31;1709485;82;21743;-61
2021/03/28 13:14:51;;;;;;;6.97;4.23;;;;;;;12.44;38.92;101232.32;1714046;82;21031;-62
2021/03/28 13:17:32;;;;;;;5.33;2.93;;;;;;;12.58;38.35;101228.48;1660515;84;21801;-62
2021/03/28 13:20:22;;;;;;;5.00;2.40;;;;;;;12.69;38.31;101227.75;1628458;87;21951;-62
2021/03/28 13:22:51;;;;;;;4.60;3.23;;;;;;;12.68;36.97;101233.48;1597640;87;21817;-63
2021/03/28 13:25:27;;;;;;;5.33;2.57;;;;;;;12.78;36.86;101228.04;1627705;87;21817;-63
2021/03/28 13:28:21;;;;;;;5.93;2.47;;;;;;;12.91;37.39;101228.27;1679686;83;21823;-62
2021/03/28 13:30:51;;;;;;;5.60;2.50;;;;;;;13.12;35.79;101228.94;1686031;83;21894;-61
2021/03/28 13:33:36;;;;;;;4.73;2.20;;;;;;;13.11;35.01;101228.13;1650479;85;21822;-60
2021/03/28 13:36:19;;;;;;;8.43;2.60;;;;;;;13.02;35.78;101227.05;1687086;83;22245;-59
2021/03/28 13:39:10;;;;;;;4.67;2.50;;;;;;;12.90;36.01;101225.34;1684921;83;21789;-61
2021/03/28 13:41:47;;;;;;;8.80;3.10;;;;;;;12.74;36.28;101228.88;1686800;83;21712;-69
2021/03/28 13:44:21;;;;;;;5.67;3.47;;;;;;;12.43;37.41;101231.52;1670275;83;22311;-61
2021/03/28 13:47:02;;;;;;;6.33;3.60;;;;;;;12.13;38.52;101222.16;1685125;83;21800;-62
2021/03/28 13:49:43;;;;;;;;;;;;;;;11.80;40.00;101234.47;1680035;83;21781;-61
2021/03/28 13:52:20;;;;;;;6.20;3.08;;;;;;;11.49;41.41;101238.78;1683810;83;20235;-61
2021/03/28 13:55:14;;;;;;;6.93;3.47;;;;;;;11.30;42.69;101240.73;1686423;83;21581;-65
2021/03/28 13:57:44;;;;;;;7.17;3.37;;;;;;;11.26;43.60;101240.74;1639034;85;21550;-61
2021/03/28 14:00:30;;;;;;;5.93;3.00;;;;;;;11.32;44.50;101238.77;1683874;83;21822;-60
2021/03/28 14:02:58;;;;;;;5.90;2.60;;;;;;;11.45;43.03;101239.09;1676487;83;21654;-60
2021/03/28 14:05:31;;;;;;;4.90;2.53;;;;;;;11.54;42.60;101238.59;1679063;83;21850;-61
2021/03/28 14:08:02;;;;;;;4.47;1.93;;;;;;;11.48;39.77;101230.59;1652374;83;21423;-67
2021/03/28 14:10:39;;;;;;;5.20;2.23;;;;;;;11.39;38.98;101230.61;1675355;83;22897;-61
2021/03/28 14:13:30;;;;;;;6.47;2.63;;;;;;;11.35;39.40;101232.41;1688217;83;21647;-61
2021/03/28 14:16:13;;;;;;;6.47;2.30;;;;;;;11.35;39.40;101232.41;1679928;83;21360;-66
2021/03/28 14:18:49;;;;;;;6.03;2.53;;;;;;;11.32;39.37;101234.85;1687733;83;21319;-60
2021/03/28 14:21:27;;;;;;;3.67;2.20;;;;;;;11.30;39.91;101239.93;1690896;83;21317;-60
2021/03/28 14:24:18;;;;;;;4.20;1.90;;;;;;;11.29;40.81;101233.89;1685986;83;21462;-63
2021/03/28 14:26:59;;;;;;;4.78;2.87;;;;;;;11.37;40.86;101229.97;1681602;83;21372;-68
2021/03/28 14:29:49;;;;;;;4.67;2.97;;;;;;;11.45;40.90;101234.38;1685345;83;21560;-61
2021/03/28 14:32:32;;;;;;;5.67;2.87;;;;;;;11.47;40.64;101234.20;1700481;82;21310;-69
2021/03/28 14:35:34;;;;;;;7.20;2.90;;;;;;;11.48;41.01;101234.52;1683106;83;21703;-64
2021/03/28 14:38:34;;;;;;;4.50;2.60;;;;;;;11.53;41.57;101230.94;1675544;83;21799;-62
2021/03/28 14:41:09;;;;;;;7.15;3.50;;;;;;;11.58;41.46;101234.67;1683116;83;20994;-63
2021/03/28 14:44:11;;;;;;;7.00;4.20;;;;;;;11.48;43.34;101238.43;1682416;83;21208;-63
2021/03/28 14:47:02;;;;;;;7.28;3.77;;;;;;;11.29;44.67;101239.58;1687056;83;21404;-63
2021/03/28 14:49:48;;;;;;;8.13;5.00;;;;;;;11.09;46.93;101240.40;1675381;83;21143;-61
2021/03/28 14:52:47;;;;;;;8.53;5.50;;;;;;;10.93;48.53;101241.20;1680893;83;21119;-60
2021/03/28 14:55:55;;;;;;;7.10;4.57;;;;;;;10.68;52.19;101245.08;1660379;85;21427;-63
2021/03/28 14:58:44;;;;;;;12.97;4.47;;;;;;;10.34;55.50;101242.53;1679160;83;21684;-60
2021/03/28 15:01:40;;;;;;;13.10;5.73;;;;;;;10.00;59.31;101245.11;1682040;83;21217;-61
2021/03/28 15:04:20;;;;;;;10.67;6.00;;;;;;;9.76;62.12;101247.06;1684300;83;21485;-61
2021/03/28 15:07:27;;;;;;;11.35;6.00;;;;;;;9.55;65.16;101250.52;1682455;83;21861;-61
2021/03/28 15:10:33;;;;;;;11.43;6.10;;;;;;;9.37;67.49;101245.34;1682132;83;21210;-65
2021/03/28 15:13:08;;;;;;;10.07;5.90;;;;;;;9.20;69.23;101255.59;1681217;83;21289;-60
2021/03/28 15:15:57;;;;;;;10.13;5.53;;;;;;;9.03;71.21;101253.01;1681372;83;21274;-60
2021/03/28 15:19:05;;;;;;;10.40;6.43;;;;;;;8.89;73.39;101255.14;1659686;85;21968;-60
2021/03/28 15:21:43;;;;;;;14.03;7.67;;;;;;;8.74;75.32;101254.01;1629054;84;21460;-60
2021/03/28 15:24:48;;;;;;;14.00;7.57;;;;;;;8.60;77.13;101254.50;1821856;78;23339;-68
2021/03/28 15:27:40;;;;;;;14.07;7.50;;;;;;;8.43;78.97;101259.52;1799630;79;20923;-59
2021/03/28 15:30:23;;;;;;;12.65;7.97;;;;;;;8.27;81.02;101258.00;1708230;80;22298;-60
2021/03/28 15:33:32;;;;;;;16.07;8.48;;;;;;;8.14;82.97;101256.19;1764906;80;22082;-60
2021/03/28 15:36:15;;;;;;;18.67;10.13;;;;;;;8.00;83.66;101261.38;1762742;80;21026;-61
2021/03/28 15:39:25;;;;;;;27.50;11.50;;;;;;;7.85;87.25;101262.78;1773714;80;21006;-63
2021/03/28 15:42:14;;;;;;;20.20;12.53;;;;;;;7.71;89.02;101258.84;1770474;80;21046;-62
2021/03/28 15:44:58;;;;;;;26.90;14.38;;;;;;;7.56;90.65;101259.27;1756753;80;21211;-60
2021/03/28 15:47:44;;;;;;;28.50;17.40;;;;;;;7.44;92.69;101260.86;1752854;81;21168;-61
2021/03/28 15:50:27;;;;;;;33.63;18.50;;;;;;;7.31;94.30;101257.23;1754375;81;21646;-59
2021/03/28 15:53:28;;;;;;;28.00;18.02;;;;;;;7.18;94.57;101256.70;1747976;81;21168;-63
2021/03/28 15:56:29;;;;;;;29.00;16.87;;;;;;;7.05;95.22;101259.57;1755556;81;21081;-61
2021/03/28 15:59:09;;;;;;;30.40;16.67;;;;;;;6.92;96.44;101261.11;1756638;81;21970;-60
2021/03/28 16:01:46;;;;;;;33.70;16.55;;;;;;;6.78;98.59;101255.01;1758029;81;21034;-64
2021/03/28 16:04:53;;;;;;;23.57;13.48;;;;;;;6.67;99.68;101257.74;1756030;81;21489;-60
2021/03/28 16:07:58;;;;;;;20.72;10.75;;;;;;;6.57;99.37;101254.63;1747184;81;21247;-59
2021/03/28 16:10:44;;;;;;;16.40;9.38;;;;;;;6.44;98.06;101256.66;1756645;81;21556;-69
2021/03/28 16:13:52;;;;;;;19.17;8.55;;;;;;;6.32;96.38;101262.38;1760105;81;22293;-61
2021/03/28 16:16:58;;;;;;;17.27;8.80;;;;;;;6.21;97.22;101264.23;1759028;80;21109;-63
2021/03/28 16:19:46;;;;;;;18.67;8.80;;;;;;;6.08;97.44;101261.88;1745234;80;21022;-60
2021/03/28 16:23:06;;;;;;;26.15;11.53;;;;;;;5.95;98.55;101263.87;1729495;80;21133;-62
2021/03/28 16:26:14;;;;;;;35.43;13.93;;;;;;;5.85;98.86;101262.00;1661050;86;21223;-62
2021/03/28 16:29:15;;;;;;;72.20;26.02;;;;;;;5.74;99.87;101272.89;1661111;85;21090;-59